createdAt,value
2018-04-28T00:00:32.910Z,94253.98
2018-04-28T00:03:02.253Z,94254.11
2018-04-28T00:05:30.726Z,94260.01
2018-04-28T00:07:59.315Z,94257.75
2018-04-28T00:10:27.665Z,94269.48
2018-04-28T00:12:56.137Z,94271.14
2018-04-28T00:15:24.563Z,94275.42
2018-04-28T00:17:52.917Z,94271.61
2018-04-28T00:20:24.115Z,94280.08
2018-04-28T00:22:54.291Z,94278.66
2018-04-28T00:25:26.221Z,94271.70
2018-04-28T00:28:03.261Z,94266.51
2018-04-28T00:30:47.682Z,94273.59
2018-04-28T00:33:21.711Z,94264.69
2018-04-28T00:35:56.834Z,94273.16
2018-04-28T00:38:25.291Z,94271.70
2018-04-28T00:40:53.754Z,94275.84
2018-04-28T00:43:25.834Z,94275.19
2018-04-28T00:45:56.945Z,94272.44
2018-04-28T00:48:31.949Z,94276.92
2018-04-28T19:43:31.346Z,94558.33
2018-04-28T19:45:59.838Z,94557.83
2018-04-28T19:48:28.327Z,94559.03
2018-04-28T19:50:56.872Z,94558.72
2018-04-28T19:53:25.416Z,94558.19
2018-04-28T19:55:54.038Z,94549.82
2018-04-28T19:58:22.434Z,94549.94
2018-04-28T20:00:50.853Z,94545.83
2018-04-28T20:03:19.221Z,94539.88
2018-04-28T20:05:47.631Z,94540.03
2018-04-28T20:08:16.060Z,94542.38
2018-04-28T20:10:44.457Z,94530.50
2018-04-28T20:13:12.921Z,94524.33
2018-04-28T20:15:41.487Z,94512.48
2018-04-28T20:18:09.944Z,94507.73
2018-04-28T20:20:38.371Z,94503.70
2018-04-28T20:23:18.582Z,94512.12
2018-04-28T20:28:56.350Z,94509.63
2018-04-28T20:31:25.140Z,94519.13
2018-04-28T20:33:54.069Z,94529.54
2018-04-28T20:36:23.010Z,94530.96
2018-04-28T20:41:50.470Z,94536.30
2018-04-28T20:44:21.332Z,94537.13
2018-04-28T20:46:53.232Z,94539.97
2018-04-28T20:49:22.307Z,94537.47
2018-04-28T20:51:55.208Z,94532.88
2018-04-28T20:54:25.173Z,94537.48
2018-04-28T20:57:14.320Z,94531.70
2018-04-28T20:59:52.332Z,94534.34
2018-04-28T21:02:22.047Z,94544.26
2018-04-28T21:04:51.240Z,94559.55
2018-04-28T21:07:20.827Z,94564.04
2018-04-28T21:09:53.244Z,94568.36
2018-04-28T21:12:22.422Z,94571.39
2018-04-28T21:14:52.686Z,94560.98
2018-04-28T21:17:22.432Z,94571.09
2018-04-28T21:19:52.318Z,94567.30
2018-04-28T21:22:22.357Z,94564.19
2018-04-28T21:24:51.993Z,94561.20
2018-04-28T21:27:21.848Z,94554.00
2018-04-28T21:29:53.251Z,94545.34
2018-04-28T21:32:24.205Z,94558.47
2018-04-28T21:34:52.961Z,94554.19
2018-04-28T21:37:22.841Z,94548.34
2018-04-28T21:39:52.740Z,94552.98
2018-04-28T21:42:21.780Z,94561.28
2018-04-28T21:44:51.146Z,94566.14
2018-04-28T21:47:20.463Z,94567.41
2018-04-28T21:49:52.054Z,94561.42
2018-04-28T21:52:21.745Z,94560.20
2018-04-28T21:54:52.839Z,94557.27
2018-04-28T21:57:22.036Z,94550.87
2018-04-28T21:59:51.553Z,94549.16
2018-04-28T22:02:20.490Z,94538.67
2018-04-28T22:04:51.415Z,94540.47
2018-04-28T22:07:21.257Z,94543.28
2018-04-28T22:09:50.577Z,94534.78
2018-04-28T22:12:21.277Z,94534.54
2018-04-28T22:14:51.473Z,94530.28
2018-04-28T22:17:21.307Z,94528.21
2018-04-28T22:19:51.496Z,94533.00
2018-04-28T22:22:21.114Z,94532.13
2018-04-28T22:24:50.210Z,94532.06
2018-04-28T22:27:19.746Z,94528.87
2018-04-28T22:29:48.716Z,94529.28
2018-04-28T22:32:18.138Z,94523.73
2018-04-28T22:34:48.915Z,94530.59
2018-04-28T22:37:18.239Z,94538.31
2018-04-28T22:39:47.650Z,94543.26
2018-04-28T22:42:18.024Z,94545.77
2018-04-28T22:44:47.045Z,94540.03
2018-04-28T22:47:16.367Z,94544.09
2018-04-28T22:49:47.503Z,94544.14
2018-04-28T22:52:18.571Z,94548.81
2018-04-28T22:54:48.273Z,94546.07
2018-04-28T22:57:18.307Z,94548.56
2018-04-28T22:59:48.942Z,94542.99
2018-04-28T23:02:19.037Z,94538.02
2018-04-28T23:04:49.120Z,94539.88
2018-04-28T23:07:18.648Z,94544.68
2018-04-28T23:09:49.640Z,94541.11
2018-04-28T23:12:18.968Z,94545.08
2018-04-28T23:14:48.164Z,94547.67
2018-04-28T23:17:18.322Z,94547.47
2018-04-28T23:19:47.888Z,94547.84
2018-04-28T23:22:20.790Z,94552.15
2018-04-28T23:24:49.693Z,94547.64
2018-04-28T23:27:18.210Z,94545.70
2018-04-28T23:29:49.172Z,94546.35
2018-04-28T23:32:20.327Z,94549.17
2018-04-28T23:34:50.999Z,94542.73
2018-04-28T23:37:21.066Z,94539.97
2018-04-28T23:39:50.699Z,94539.06
2018-04-28T23:42:21.230Z,94537.17
2018-04-28T23:44:50.801Z,94537.66
2018-04-28T23:47:20.847Z,94538.48
2018-04-28T23:49:50.289Z,94537.08
2018-04-28T23:52:19.825Z,94533.89
2018-04-28T23:54:49.464Z,94532.15
2018-04-28T23:57:19.328Z,94520.64
2018-04-28T23:59:48.974Z,94522.50
